Terminal Aerodrome Forecast
Issued by NWS Houston/Galveston TX

Home | Current Version | Previous Version | Text Only | Print | Product List | Glossary On
Versions: 1 2 3 4 5 6 7 8 9 10 11 12 13 14 15 16 17 18 19 20 21 22 23 24 25 26 27 28 29 30
000
FTUS44 KHGX 211514 AAA
TAFHOU
TAF AMD
KHOU 211514Z 2115/2212 13006KT P6SM FEW025 SCT070
     FM211600 15011KT P6SM VCSH SCT025 BKN035
     FM212300 15010KT P6SM SCT030 SCT250
     FM220400 15005KT P6SM BKN025=

USA.gov is the U.S. government's official web portal to all federal, state and local government web resources and services.